sensor_id;sensor_type;location;lat;lon;timestamp;pressure;altitude;pressure_sealevel;temperature;humidity
4449;BME280;2237;51.870;6.160;2022-08-01T00:00:04;101495.22;;;21.59;100.00
4449;BME280;2237;51.870;6.160;2022-08-01T00:02:34;101494.09;;;21.63;100.00
4449;BME280;2237;51.870;6.160;2022-08-01T00:05:00;101497.19;;;21.56;100.00
4449;BME280;2237;51.870;6.160;2022-08-01T00:07:27;101498.69;;;21.60;100.00
4449;BME280;2237;51.870;6.160;2022-08-01T00:09:54;101500.94;;;21.67;100.00
4449;BME280;2237;51.870;6.160;2022-08-01T00:12:20;101500.53;;;21.59;100.00
4449;BME280;2237;51.870;6.160;2022-08-01T00:14:47;101491.59;;;21.60;100.00
4449;BME280;2237;51.870;6.160;2022-08-01T00:17:13;101495.69;;;21.66;100.00
4449;BME280;2237;51.870;6.160;2022-08-01T00:19:39;101495.00;;;21.62;100.00
4449;BME280;2237;51.870;6.160;2022-08-01T00:22:06;101498.97;;;21.71;100.00
4449;BME280;2237;51.870;6.160;2022-08-01T00:24:33;101505.88;;;21.73;100.00
4449;BME280;2237;51.870;6.160;2022-08-01T00:27:00;101501.69;;;21.69;100.00
4449;BME280;2237;51.870;6.160;2022-08-01T00:29:26;101500.13;;;21.65;100.00
4449;BME280;2237;51.870;6.160;2022-08-01T00:32:12;101503.53;;;21.53;100.00
4449;BME280;2237;51.870;6.160;2022-08-01T00:34:39;101500.88;;;21.53;100.00
4449;BME280;2237;51.870;6.160;2022-08-01T00:37:06;101496.41;;;21.54;100.00
4449;BME280;2237;51.870;6.160;2022-08-01T00:39:32;101501.72;;;21.38;100.00
4449;BME280;2237;51.870;6.160;2022-08-01T00:42:00;101499.66;;;21.27;100.00
4449;BME280;2237;51.870;6.160;2022-08-01T00:44:32;101506.44;;;21.33;100.00
4449;BME280;2237;51.870;6.160;2022-08-01T00:46:58;101492.16;;;21.35;100.00
4449;BME280;2237;51.870;6.160;2022-08-01T00:49:25;101497.13;;;21.42;100.00
4449;BME280;2237;51.870;6.160;2022-08-01T00:51:52;101496.25;;;21.41;100.00
4449;BME280;2237;51.870;6.160;2022-08-01T00:54:18;101495.22;;;21.44;100.00
4449;BME280;2237;51.870;6.160;2022-08-01T00:56:45;101485.31;;;21.47;100.00
4449;BME280;2237;51.870;6.160;2022-08-01T00:59:12;101490.16;;;21.55;100.00
4449;BME280;2237;51.870;6.160;2022-08-01T01:01:40;101497.94;;;21.42;100.00
4449;BME280;2237;51.870;6.160;2022-08-01T01:04:12;101488.25;;;21.27;100.00
4449;BME280;2237;51.870;6.160;2022-08-01T01:14:50;101495.72;;;21.03;100.00
4449;BME280;2237;51.870;6.160;2022-08-01T01:17:26;101502.22;;;20.98;100.00
4449;BME280;2237;51.870;6.160;2022-08-01T01:20:15;101501.94;;;20.87;100.00
4449;BME280;2237;51.870;6.160;2022-08-01T01:31:23;101498.91;;;21.10;100.00
4449;BME280;2237;51.870;6.160;2022-08-01T01:33:53;101490.97;;;21.10;100.00
4449;BME280;2237;51.870;6.160;2022-08-01T01:36:21;101494.44;;;21.10;100.00
4449;BME280;2237;51.870;6.160;2022-08-01T01:38:51;101499.97;;;21.06;100.00
4449;BME280;2237;51.870;6.160;2022-08-01T01:41:19;101496.81;;;20.99;100.00
4449;BME280;2237;51.870;6.160;2022-08-01T01:43:47;101518.25;;;20.95;100.00
4449;BME280;2237;51.870;6.160;2022-08-01T01:46:17;101508.31;;;20.82;100.00
4449;BME280;2237;51.870;6.160;2022-08-01T01:48:46;101508.38;;;20.81;100.00
4449;BME280;2237;51.870;6.160;2022-08-01T01:51:13;101510.22;;;20.80;100.00
4449;BME280;2237;51.870;6.160;2022-08-01T01:53:42;101506.00;;;20.76;100.00
4449;BME280;2237;51.870;6.160;2022-08-01T01:56:11;101511.63;;;20.70;100.00
4449;BME280;2237;51.870;6.160;2022-08-01T01:58:38;101511.56;;;20.72;100.00
4449;BME280;2237;51.870;6.160;2022-08-01T02:01:06;101510.69;;;20.71;100.00
4449;BME280;2237;51.870;6.160;2022-08-01T02:03:42;101500.38;;;20.82;100.00
4449;BME280;2237;51.870;6.160;2022-08-01T02:06:09;101504.44;;;20.90;100.00
4449;BME280;2237;51.870;6.160;2022-08-01T02:08:40;101496.47;;;20.90;100.00
4449;BME280;2237;51.870;6.160;2022-08-01T02:11:07;101502.94;;;20.84;100.00
4449;BME280;2237;51.870;6.160;2022-08-01T02:13:53;101500.66;;;20.78;100.00
4449;BME280;2237;51.870;6.160;2022-08-01T02:16:23;101502.28;;;20.80;100.00
4449;BME280;2237;51.870;6.160;2022-08-01T02:18:50;101495.00;;;20.84;100.00
4449;BME280;2237;51.870;6.160;2022-08-01T02:21:23;101503.28;;;20.78;100.00
4449;BME280;2237;51.870;6.160;2022-08-01T02:23:51;101507.19;;;20.71;100.00
4449;BME280;2237;51.870;6.160;2022-08-01T02:26:22;101508.22;;;20.68;100.00
4449;BME280;2237;51.870;6.160;2022-08-01T02:28:55;101516.75;;;20.73;100.00
4449;BME280;2237;51.870;6.160;2022-08-01T02:31:24;101511.09;;;20.64;100.00
4449;BME280;2237;51.870;6.160;2022-08-01T02:34:03;101509.13;;;20.67;100.00
4449;BME280;2237;51.870;6.160;2022-08-01T02:36:33;101500.50;;;20.64;100.00
4449;BME280;2237;51.870;6.160;2022-08-01T02:39:03;101500.44;;;20.65;100.00
4449;BME280;2237;51.870;6.160;2022-08-01T02:41:30;101498.19;;;20.58;100.00
4449;BME280;2237;51.870;6.160;2022-08-01T02:44:03;101505.19;;;20.59;100.00
4449;BME280;2237;51.870;6.160;2022-08-01T02:46:49;101513.72;;;20.64;100.00
4449;BME280;2237;51.870;6.160;2022-08-01T02:49:17;101506.75;;;20.63;100.00
4449;BME280;2237;51.870;6.160;2022-08-01T02:51:47;101504.59;;;20.69;100.00
4449;BME280;2237;51.870;6.160;2022-08-01T02:54:17;101504.91;;;20.80;100.00
4449;BME280;2237;51.870;6.160;2022-08-01T02:56:46;101510.06;;;20.83;100.00
4449;BME280;2237;51.870;6.160;2022-08-01T02:59:16;101509.19;;;20.83;100.00
4449;BME280;2237;51.870;6.160;2022-08-01T03:01:49;101510.97;;;20.82;100.00
4449;BME280;2237;51.870;6.160;2022-08-01T03:04:22;101503.97;;;20.81;100.00
4449;BME280;2237;51.870;6.160;2022-08-01T03:06:51;101506.50;;;20.67;100.00
4449;BME280;2237;51.870;6.160;2022-08-01T03:09:18;101510.47;;;20.59;100.00
4449;BME280;2237;51.870;6.160;2022-08-01T03:11:46;101513.38;;;20.54;100.00
4449;BME280;2237;51.870;6.160;2022-08-01T03:14:14;101520.53;;;20.52;100.00
4449;BME280;2237;51.870;6.160;2022-08-01T03:16:44;101521.06;;;20.59;100.00
4449;BME280;2237;51.870;6.160;2022-08-01T03:19:13;101517.50;;;20.60;100.00
4449;BME280;2237;51.870;6.160;2022-08-01T03:21:40;101518.69;;;20.54;100.00
4449;BME280;2237;51.870;6.160;2022-08-01T03:24:10;101513.28;;;20.56;100.00
4449;BME280;2237;51.870;6.160;2022-08-01T03:26:38;101520.31;;;20.57;100.00
4449;BME280;2237;51.870;6.160;2022-08-01T03:29:08;101516.81;;;20.56;100.00
4449;BME280;2237;51.870;6.160;2022-08-01T03:31:37;101519.88;;;20.64;100.00
4449;BME280;2237;51.870;6.160;2022-08-01T03:34:05;101521.94;;;20.59;100.00
4449;BME280;2237;51.870;6.160;2022-08-01T03:36:32;101514.91;;;20.58;100.00
4449;BME280;2237;51.870;6.160;2022-08-01T03:39:02;101524.41;;;20.62;100.00
4449;BME280;2237;51.870;6.160;2022-08-01T03:41:36;101519.41;;;20.73;100.00
4449;BME280;2237;51.870;6.160;2022-08-01T03:44:16;101513.63;;;20.82;100.00
4449;BME280;2237;51.870;6.160;2022-08-01T03:46:47;101518.59;;;20.89;100.00
4449;BME280;2237;51.870;6.160;2022-08-01T03:49:18;101514.53;;;20.81;100.00
4449;BME280;2237;51.870;6.160;2022-08-01T03:51:47;101518.97;;;20.81;100.00
4449;BME280;2237;51.870;6.160;2022-08-01T03:54:17;101513.63;;;20.82;100.00
4449;BME280;2237;51.870;6.160;2022-08-01T03:56:48;101508.97;;;20.70;100.00
4449;BME280;2237;51.870;6.160;2022-08-01T03:59:16;101522.81;;;20.75;100.00
4449;BME280;2237;51.870;6.160;2022-08-01T04:01:45;101522.81;;;20.75;100.00
4449;BME280;2237;51.870;6.160;2022-08-01T04:04:12;101523.50;;;20.63;100.00
4449;BME280;2237;51.870;6.160;2022-08-01T04:06:40;101528.94;;;20.60;100.00
4449;BME280;2237;51.870;6.160;2022-08-01T04:09:07;101520.16;;;20.60;100.00
4449;BME280;2237;51.870;6.160;2022-08-01T04:11:39;101524.75;;;20.56;100.00
4449;BME280;2237;51.870;6.160;2022-08-01T04:14:07;101525.00;;;20.52;100.00
4449;BME280;2237;51.870;6.160;2022-08-01T04:16:34;101529.09;;;20.57;100.00
4449;BME280;2237;51.870;6.160;2022-08-01T04:19:01;101523.50;;;20.63;100.00
4449;BME280;2237;51.870;6.160;2022-08-01T04:21:29;101520.84;;;20.63;100.00
4449;BME280;2237;51.870;6.160;2022-08-01T04:24:00;101525.50;;;20.58;100.00
4449;BME280;2237;51.870;6.160;2022-08-01T04:26:30;101528.16;;;20.58;100.00
4449;BME280;2237;51.870;6.160;2022-08-01T04:29:00;101528.94;;;20.60;100.00
4449;BME280;2237;51.870;6.160;2022-08-01T04:31:29;101530.47;;;20.64;100.00
4449;BME280;2237;51.870;6.160;2022-08-01T04:33:59;101532.19;;;20.65;100.00
4449;BME280;2237;51.870;6.160;2022-08-01T04:36:28;101533.97;;;20.65;100.00
4449;BME280;2237;51.870;6.160;2022-08-01T04:38:59;101535.78;;;20.64;100.00
4449;BME280;2237;51.870;6.160;2022-08-01T04:41:27;101535.88;;;20.63;100.00
4449;BME280;2237;51.870;6.160;2022-08-01T04:43:57;101531.34;;;20.65;100.00
4449;BME280;2237;51.870;6.160;2022-08-01T04:46:27;101541.22;;;20.61;100.00
4449;BME280;2237;51.870;6.160;2022-08-01T04:48:55;101543.44;;;20.53;100.00
4449;BME280;2237;51.870;6.160;2022-08-01T04:51:22;101550.59;;;20.51;100.00
4449;BME280;2237;51.870;6.160;2022-08-01T04:53:49;101561.78;;;20.56;100.00
4449;BME280;2237;51.870;6.160;2022-08-01T04:56:18;101556.25;;;20.61;100.00
4449;BME280;2237;51.870;6.160;2022-08-01T04:58:45;101548.84;;;20.67;100.00
4449;BME280;2237;51.870;6.160;2022-08-01T05:01:12;101554.25;;;20.81;100.00
4449;BME280;2237;51.870;6.160;2022-08-01T05:03:39;101550.09;;;20.93;100.00
4449;BME280;2237;51.870;6.160;2022-08-01T05:06:05;101550.56;;;21.01;100.00
4449;BME280;2237;51.870;6.160;2022-08-01T05:08:32;101554.75;;;21.05;100.00
4449;BME280;2237;51.870;6.160;2022-08-01T05:10:59;101562.25;;;20.97;100.00
4449;BME280;2237;51.870;6.160;2022-08-01T05:13:25;101561.75;;;20.73;100.00
4449;BME280;2237;51.870;6.160;2022-08-01T05:15:52;101571.13;;;20.63;100.00
4449;BME280;2237;51.870;6.160;2022-08-01T05:18:18;101573.78;;;20.63;100.00
4449;BME280;2237;51.870;6.160;2022-08-01T05:20:54;101573.13;;;20.75;100.00
4449;BME280;2237;51.870;6.160;2022-08-01T05:23:20;101572.72;;;20.83;100.00
4449;BME280;2237;51.870;6.160;2022-08-01T05:26:07;101566.69;;;20.97;100.00
4449;BME280;2237;51.870;6.160;2022-08-01T05:28:34;101568.41;;;20.98;100.00
4449;BME280;2237;51.870;6.160;2022-08-01T05:31:01;101570.63;;;20.90;100.00
4449;BME280;2237;51.870;6.160;2022-08-01T05:33:28;101572.75;;;20.99;100.00
4449;BME280;2237;51.870;6.160;2022-08-01T05:35:54;101576.78;;;21.06;100.00
4449;BME280;2237;51.870;6.160;2022-08-01T05:38:21;101578.38;;;21.10;100.00
4449;BME280;2237;51.870;6.160;2022-08-01T05:40:47;101576.69;;;20.92;100.00
4449;BME280;2237;51.870;6.160;2022-08-01T05:43:14;101580.34;;;20.89;100.00
4449;BME280;2237;51.870;6.160;2022-08-01T05:45:40;101581.53;;;20.83;100.00
4449;BME280;2237;51.870;6.160;2022-08-01T05:48:07;101592.88;;;20.85;100.00
4449;BME280;2237;51.870;6.160;2022-08-01T05:50:34;101590.47;;;20.98;100.00
4449;BME280;2237;51.870;6.160;2022-08-01T05:53:01;101590.47;;;20.98;100.00
4449;BME280;2237;51.870;6.160;2022-08-01T05:55:27;101585.47;;;21.09;100.00
4449;BME280;2237;51.870;6.160;2022-08-01T05:57:54;101594.13;;;21.28;100.00
4449;BME280;2237;51.870;6.160;2022-08-01T06:00:20;101576.44;;;21.29;100.00
4449;BME280;2237;51.870;6.160;2022-08-01T06:02:47;101586.16;;;21.28;100.00
4449;BME280;2237;51.870;6.160;2022-08-01T06:05:13;101581.06;;;21.41;100.00
4449;BME280;2237;51.870;6.160;2022-08-01T06:07:40;101575.50;;;21.61;100.00
4449;BME280;2237;51.870;6.160;2022-08-01T06:10:10;101585.84;;;21.81;99.37
4449;BME280;2237;51.870;6.160;2022-08-01T06:12:36;101581.56;;;21.63;98.22
4449;BME280;2237;51.870;6.160;2022-08-01T06:15:04;101581.31;;;21.52;98.12
4449;BME280;2237;51.870;6.160;2022-08-01T06:17:31;101580.03;;;21.44;98.93
4449;BME280;2237;51.870;6.160;2022-08-01T06:19:58;101576.88;;;21.37;99.09
4449;BME280;2237;51.870;6.160;2022-08-01T06:22:25;101583.09;;;21.52;98.91
4449;BME280;2237;51.870;6.160;2022-08-01T06:24:53;101571.38;;;21.40;97.22
4449;BME280;2237;51.870;6.160;2022-08-01T06:27:20;101582.50;;;21.62;96.99
4449;BME280;2237;51.870;6.160;2022-08-01T06:29:48;101579.78;;;21.79;94.92
4449;BME280;2237;51.870;6.160;2022-08-01T06:32:20;101578.97;;;22.09;93.51
4449;BME280;2237;51.870;6.160;2022-08-01T06:34:52;101583.84;;;22.16;90.38
4449;BME280;2237;51.870;6.160;2022-08-01T06:37:19;101577.13;;;21.95;87.79
4449;BME280;2237;51.870;6.160;2022-08-01T06:39:46;101577.81;;;21.99;86.61
4449;BME280;2237;51.870;6.160;2022-08-01T06:42:15;101578.59;;;22.15;86.96
4449;BME280;2237;51.870;6.160;2022-08-01T06:44:41;101582.28;;;22.12;86.33
4449;BME280;2237;51.870;6.160;2022-08-01T06:47:08;101583.16;;;22.13;87.29
4449;BME280;2237;51.870;6.160;2022-08-01T06:49:35;101586.22;;;22.21;88.06
4449;BME280;2237;51.870;6.160;2022-08-01T06:52:02;101588.97;;;22.19;87.91
4449;BME280;2237;51.870;6.160;2022-08-01T06:54:30;101593.09;;;22.09;88.90
4449;BME280;2237;51.870;6.160;2022-08-01T06:56:57;101598.81;;;21.86;90.83
4449;BME280;2237;51.870;6.160;2022-08-01T06:59:23;101607.50;;;21.58;93.97
4449;BME280;2237;51.870;6.160;2022-08-01T07:01:50;101603.22;;;21.56;95.29
4449;BME280;2237;51.870;6.160;2022-08-01T07:04:16;101608.91;;;21.48;96.77
4449;BME280;2237;51.870;6.160;2022-08-01T07:06:43;101603.78;;;21.45;97.14
4449;BME280;2237;51.870;6.160;2022-08-01T07:09:09;101604.47;;;21.49;97.68
4449;BME280;2237;51.870;6.160;2022-08-01T07:11:39;101604.91;;;21.72;98.04
4449;BME280;2237;51.870;6.160;2022-08-01T07:14:06;101611.00;;;22.06;96.80
4449;BME280;2237;51.870;6.160;2022-08-01T07:16:32;101601.34;;;22.34;94.40
4449;BME280;2237;51.870;6.160;2022-08-01T07:18:59;101599.78;;;22.60;92.22
4449;BME280;2237;51.870;6.160;2022-08-01T07:21:25;101593.78;;;22.72;89.79
4449;BME280;2237;51.870;6.160;2022-08-01T07:24:07;101597.56;;;22.68;86.86
4449;BME280;2237;51.870;6.160;2022-08-01T07:26:38;101608.38;;;22.79;86.16
4449;BME280;2237;51.870;6.160;2022-08-01T07:29:18;101613.31;;;23.14;84.68
4449;BME280;2237;51.870;6.160;2022-08-01T07:31:44;101626.81;;;23.25;82.11
4449;BME280;2237;51.870;6.160;2022-08-01T07:34:11;101617.78;;;23.13;79.87
4449;BME280;2237;51.870;6.160;2022-08-01T07:36:37;101622.03;;;23.01;80.55
4449;BME280;2237;51.870;6.160;2022-08-01T07:39:04;101624.75;;;23.16;81.61
4449;BME280;2237;51.870;6.160;2022-08-01T07:41:30;101623.94;;;23.28;80.38
4449;BME280;2237;51.870;6.160;2022-08-01T07:44:16;101623.38;;;23.51;79.52
4449;BME280;2237;51.870;6.160;2022-08-01T07:46:43;101642.75;;;23.67;78.68
4449;BME280;2237;51.870;6.160;2022-08-01T07:49:09;101637.81;;;23.61;77.86
4449;BME280;2237;51.870;6.160;2022-08-01T07:51:36;101633.09;;;23.52;77.07
4449;BME280;2237;51.870;6.160;2022-08-01T07:54:03;101642.41;;;23.45;77.84
4449;BME280;2237;51.870;6.160;2022-08-01T07:56:29;101645.63;;;23.36;78.44
4449;BME280;2237;51.870;6.160;2022-08-01T07:58:56;101645.03;;;23.31;79.07
4449;BME280;2237;51.870;6.160;2022-08-01T08:01:23;101643.63;;;23.39;79.40
4449;BME280;2237;51.870;6.160;2022-08-01T08:03:50;101639.31;;;23.37;78.53
4449;BME280;2237;51.870;6.160;2022-08-01T08:06:16;101640.78;;;23.42;78.48
4449;BME280;2237;51.870;6.160;2022-08-01T08:08:43;101643.72;;;23.52;78.28
4449;BME280;2237;51.870;6.160;2022-08-01T08:11:09;101654.53;;;23.63;77.90
4449;BME280;2237;51.870;6.160;2022-08-01T08:13:36;101657.06;;;23.79;77.17
4449;BME280;2237;51.870;6.160;2022-08-01T08:16:02;101649.91;;;23.93;75.92
4449;BME280;2237;51.870;6.160;2022-08-01T08:18:29;101656.13;;;24.06;74.76
4449;BME280;2237;51.870;6.160;2022-08-01T08:20:56;101664.53;;;24.27;75.81
4449;BME280;2237;51.870;6.160;2022-08-01T08:23:22;101661.53;;;24.46;74.81
4449;BME280;2237;51.870;6.160;2022-08-01T08:26:10;101665.09;;;24.71;73.48
4449;BME280;2237;51.870;6.160;2022-08-01T08:28:37;101657.53;;;24.78;71.32
4449;BME280;2237;51.870;6.160;2022-08-01T08:31:06;101668.66;;;24.85;70.61
4449;BME280;2237;51.870;6.160;2022-08-01T08:33:53;101666.16;;;24.69;68.23
4449;BME280;2237;51.870;6.160;2022-08-01T08:36:20;101670.84;;;24.65;70.31
4449;BME280;2237;51.870;6.160;2022-08-01T08:38:46;101675.97;;;24.68;70.68
4449;BME280;2237;51.870;6.160;2022-08-01T08:41:13;101673.72;;;24.62;71.74
4449;BME280;2237;51.870;6.160;2022-08-01T08:43:46;101671.97;;;24.49;72.55
4449;BME280;2237;51.870;6.160;2022-08-01T08:46:14;101681.44;;;24.40;73.21
4449;BME280;2237;51.870;6.160;2022-08-01T08:48:41;101674.53;;;24.24;72.71
4449;BME280;2237;51.870;6.160;2022-08-01T08:51:10;101686.09;;;24.10;73.27
4449;BME280;2237;51.870;6.160;2022-08-01T08:53:40;101691.75;;;23.91;73.09
4449;BME280;2237;51.870;6.160;2022-08-01T08:56:13;101681.06;;;23.50;73.06
4449;BME280;2237;51.870;6.160;2022-08-01T08:58:44;101688.53;;;23.58;73.70
4449;BME280;2237;51.870;6.160;2022-08-01T09:01:12;101683.97;;;23.60;72.35
4449;BME280;2237;51.870;6.160;2022-08-01T09:03:39;101685.88;;;23.72;73.25
4449;BME280;2237;51.870;6.160;2022-08-01T09:06:06;101685.84;;;23.86;73.30
4449;BME280;2237;51.870;6.160;2022-08-01T09:08:36;101678.25;;;23.94;73.57
4449;BME280;2237;51.870;6.160;2022-08-01T09:11:04;101682.28;;;24.14;73.70
4449;BME280;2237;51.870;6.160;2022-08-01T09:13:30;101677.06;;;24.39;73.33
4449;BME280;2237;51.870;6.160;2022-08-01T09:15:57;101689.81;;;24.61;72.26
4449;BME280;2237;51.870;6.160;2022-08-01T09:18:36;101679.81;;;24.77;71.15
4449;BME280;2237;51.870;6.160;2022-08-01T09:25:58;101699.81;;;25.09;69.84
4449;BME280;2237;51.870;6.160;2022-08-01T09:28:29;101698.53;;;25.27;68.40
4449;BME280;2237;51.870;6.160;2022-08-01T09:30:57;101709.19;;;25.40;67.93
4449;BME280;2237;51.870;6.160;2022-08-01T09:33:23;101700.66;;;25.35;66.97
4449;BME280;2237;51.870;6.160;2022-08-01T09:35:57;101698.13;;;25.34;67.42
4449;BME280;2237;51.870;6.160;2022-08-01T09:38:25;101712.50;;;25.31;67.09
4449;BME280;2237;51.870;6.160;2022-08-01T09:40:57;101712.63;;;25.29;67.58
4449;BME280;2237;51.870;6.160;2022-08-01T09:43:29;101715.72;;;25.23;67.92
4449;BME280;2237;51.870;6.160;2022-08-01T09:45:58;101719.44;;;25.21;67.79
4449;BME280;2237;51.870;6.160;2022-08-01T09:48:25;101720.28;;;25.09;68.19
4449;BME280;2237;51.870;6.160;2022-08-01T09:50:56;101716.75;;;24.96;68.13
4449;BME280;2237;51.870;6.160;2022-08-01T09:53:47;101722.66;;;24.74;70.49
4449;BME280;2237;51.870;6.160;2022-08-01T09:56:18;101725.50;;;24.71;70.61
4449;BME280;2237;51.870;6.160;2022-08-01T09:58:53;101728.69;;;24.63;71.14
4449;BME280;2237;51.870;6.160;2022-08-01T10:01:27;101731.78;;;24.57;70.15
4449;BME280;2237;51.870;6.160;2022-08-01T10:04:24;101728.09;;;24.46;70.55
4449;BME280;2237;51.870;6.160;2022-08-01T10:06:51;101732.81;;;24.28;69.89
4449;BME280;2237;51.870;6.160;2022-08-01T10:09:32;101731.53;;;23.93;71.14
4449;BME280;2237;51.870;6.160;2022-08-01T10:12:07;101735.75;;;23.83;71.72
4449;BME280;2237;51.870;6.160;2022-08-01T10:14:42;101727.78;;;24.09;72.00
4449;BME280;2237;51.870;6.160;2022-08-01T10:17:17;101731.91;;;24.42;71.77
4449;BME280;2237;51.870;6.160;2022-08-01T10:19:46;101731.25;;;24.65;70.26
4449;BME280;2237;51.870;6.160;2022-08-01T10:22:18;101729.75;;;25.00;69.45
4449;BME280;2237;51.870;6.160;2022-08-01T10:24:47;101728.72;;;25.41;67.98
4449;BME280;2237;51.870;6.160;2022-08-01T10:27:15;101730.09;;;25.71;66.56
4449;BME280;2237;51.870;6.160;2022-08-01T10:30:03;101728.06;;;25.75;66.00
4449;BME280;2237;51.870;6.160;2022-08-01T10:32:47;101730.94;;;25.84;65.24
4449;BME280;2237;51.870;6.160;2022-08-01T10:35:16;101733.09;;;25.79;65.09
4449;BME280;2237;51.870;6.160;2022-08-01T10:38:04;101737.34;;;25.82;64.92
4449;BME280;2237;51.870;6.160;2022-08-01T10:40:31;101739.47;;;25.90;64.44
4449;BME280;2237;51.870;6.160;2022-08-01T10:43:00;101737.50;;;25.68;64.93
4449;BME280;2237;51.870;6.160;2022-08-01T10:45:29;101749.53;;;25.36;62.84
4449;BME280;2237;51.870;6.160;2022-08-01T10:48:03;101751.13;;;25.13;65.17
4449;BME280;2237;51.870;6.160;2022-08-01T10:50:37;101754.38;;;24.91;65.31
4449;BME280;2237;51.870;6.160;2022-08-01T10:53:14;101752.75;;;24.62;64.62
4449;BME280;2237;51.870;6.160;2022-08-01T10:58:37;101749.63;;;24.55;66.58
4449;BME280;2237;51.870;6.160;2022-08-01T11:01:25;101750.75;;;24.65;66.38
4449;BME280;2237;51.870;6.160;2022-08-01T11:09:24;101749.41;;;24.46;66.96
4449;BME280;2237;51.870;6.160;2022-08-01T11:17:42;101751.69;;;24.52;67.40
4449;BME280;2237;51.870;6.160;2022-08-01T11:20:19;101756.75;;;24.69;66.89
4449;BME280;2237;51.870;6.160;2022-08-01T11:28:25;101759.84;;;24.22;68.29
4449;BME280;2237;51.870;6.160;2022-08-01T11:41:15;101765.94;;;25.29;66.48
4449;BME280;2237;51.870;6.160;2022-08-01T11:44:04;101757.66;;;25.59;66.28
4449;BME280;2237;51.870;6.160;2022-08-01T11:49:26;101759.78;;;25.42;63.48
4449;BME280;2237;51.870;6.160;2022-08-01T11:59:44;101750.47;;;25.85;59.44
4449;BME280;2237;51.870;6.160;2022-08-01T12:02:31;101753.63;;;26.15;58.94
4449;BME280;2237;51.870;6.160;2022-08-01T12:05:11;101749.63;;;26.57;57.95
4449;BME280;2237;51.870;6.160;2022-08-01T12:07:40;101753.19;;;26.92;56.80
4449;BME280;2237;51.870;6.160;2022-08-01T12:10:15;101744.13;;;27.17;56.18
4449;BME280;2237;51.870;6.160;2022-08-01T12:12:45;101742.47;;;27.27;54.71
4449;BME280;2237;51.870;6.160;2022-08-01T12:15:12;101749.41;;;27.41;53.36
4449;BME280;2237;51.870;6.160;2022-08-01T12:17:41;101739.50;;;27.65;53.79
4449;BME280;2237;51.870;6.160;2022-08-01T12:20:23;101748.59;;;27.96;51.96
4449;BME280;2237;51.870;6.160;2022-08-01T12:22:54;101746.66;;;27.87;51.76
4449;BME280;2237;51.870;6.160;2022-08-01T12:25:21;101749.84;;;27.92;51.20
4449;BME280;2237;51.870;6.160;2022-08-01T12:27:48;101748.47;;;27.75;52.21
4449;BME280;2237;51.870;6.160;2022-08-01T12:30:21;101747.16;;;27.47;52.66
4449;BME280;2237;51.870;6.160;2022-08-01T12:32:53;101742.66;;;27.59;53.53
4449;BME280;2237;51.870;6.160;2022-08-01T12:35:25;101748.25;;;27.78;52.77
4449;BME280;2237;51.870;6.160;2022-08-01T12:37:55;101753.47;;;27.91;52.89
4449;BME280;2237;51.870;6.160;2022-08-01T12:40:33;101754.31;;;28.02;53.53
4449;BME280;2237;51.870;6.160;2022-08-01T12:43:01;101762.13;;;27.94;52.38
4449;BME280;2237;51.870;6.160;2022-08-01T12:45:32;101764.16;;;27.46;53.79
4449;BME280;2237;51.870;6.160;2022-08-01T12:48:00;101753.16;;;27.27;54.12
4449;BME280;2237;51.870;6.160;2022-08-01T12:50:29;101762.16;;;27.26;53.65
4449;BME280;2237;51.870;6.160;2022-08-01T12:52:59;101757.25;;;27.09;53.78
4449;BME280;2237;51.870;6.160;2022-08-01T12:55:26;101767.75;;;26.88;54.79
4449;BME280;2237;51.870;6.160;2022-08-01T12:58:13;101759.22;;;27.07;54.80
4449;BME280;2237;51.870;6.160;2022-08-01T13:00:44;101758.91;;;27.34;53.40
4449;BME280;2237;51.870;6.160;2022-08-01T13:03:13;101752.50;;;27.59;53.13
4449;BME280;2237;51.870;6.160;2022-08-01T13:08:23;101748.25;;;27.78;50.12
4449;BME280;2237;51.870;6.160;2022-08-01T13:10:53;101748.03;;;28.03;49.82
4449;BME280;2237;51.870;6.160;2022-08-01T13:13:37;101752.81;;;28.75;45.16
4449;BME280;2237;51.870;6.160;2022-08-01T13:16:05;101746.31;;;29.30;43.40
4449;BME280;2237;51.870;6.160;2022-08-01T13:18:34;101741.41;;;29.65;43.77
4449;BME280;2237;51.870;6.160;2022-08-01T13:21:12;101758.13;;;29.68;41.74
4449;BME280;2237;51.870;6.160;2022-08-01T13:29:16;101750.72;;;31.27;37.38
4449;BME280;2237;51.870;6.160;2022-08-01T13:31:43;101753.91;;;31.59;35.95
4449;BME280;2237;51.870;6.160;2022-08-01T13:34:10;101749.00;;;31.26;34.01
4449;BME280;2237;51.870;6.160;2022-08-01T13:36:38;101744.94;;;30.74;35.79
4449;BME280;2237;51.870;6.160;2022-08-01T13:39:05;101747.56;;;30.26;35.81
4449;BME280;2237;51.870;6.160;2022-08-01T13:41:51;101748.31;;;29.88;37.53
4449;BME280;2237;51.870;6.160;2022-08-01T13:44:17;101745.69;;;29.98;37.72
4449;BME280;2237;51.870;6.160;2022-08-01T13:46:44;101738.16;;;30.01;35.67
4449;BME280;2237;51.870;6.160;2022-08-01T13:49:16;101730.88;;;30.32;35.88
4449;BME280;2237;51.870;6.160;2022-08-01T13:51:57;101737.84;;;31.67;34.51
4449;BME280;2237;51.870;6.160;2022-08-01T13:54:23;101749.31;;;31.97;32.61
4449;BME280;2237;51.870;6.160;2022-08-01T13:56:51;101736.25;;;31.74;32.66
4449;BME280;2237;51.870;6.160;2022-08-01T13:59:18;101738.09;;;32.46;31.06
4449;BME280;2237;51.870;6.160;2022-08-01T14:01:48;101742.75;;;33.58;29.31
4449;BME280;2237;51.870;6.160;2022-08-01T14:04:14;101725.25;;;37.47;24.51
4449;BME280;2237;51.870;6.160;2022-08-01T14:06:41;101724.16;;;40.42;21.16
4449;BME280;2237;51.870;6.160;2022-08-01T14:09:08;101711.47;;;45.64;17.33
4449;BME280;2237;51.870;6.160;2022-08-01T14:11:43;101696.22;;;43.62;17.88
4449;BME280;2237;51.870;6.160;2022-08-01T14:14:11;101697.94;;;44.23;17.75
4449;BME280;2237;51.870;6.160;2022-08-01T14:16:38;101688.75;;;47.73;14.16
4449;BME280;2237;51.870;6.160;2022-08-01T14:19:05;101698.41;;;50.47;11.81
4449;BME280;2237;51.870;6.160;2022-08-01T14:21:32;101708.50;;;53.40;9.02
4449;BME280;2237;51.870;6.160;2022-08-01T14:23:59;101699.09;;;52.26;9.11
4449;BME280;2237;51.870;6.160;2022-08-01T14:26:25;101691.19;;;50.66;9.31
4449;BME280;2237;51.870;6.160;2022-08-01T14:28:52;101697.00;;;50.60;10.06
4449;BME280;2237;51.870;6.160;2022-08-01T14:31:18;101700.47;;;49.07;11.28